الصفحة الرئيسية
METAR-TAF:

METAR-TAF

مطار :

Ciudad del Carmen, المكسيك

دائرة عرض: 18-39N, خط طول: 091-48W, ارتفاع: 2 متر

مراقبة الطقس الحالي

تاريخ ووقت الإصدار 53 دقيقة قبل الساعة 15:49UTC
ريح 14 عقدة من الجنوب الشرقي
درجة الحرارة 29°درجة مئوية
الرطوبة 62%
ضغط 1012 hPa
الرؤية: 11.3 كم
سماء صافية

METAR: MMCE 241549Z 14014KT 7SM SKC 29/21 A2988

زمن: 11:42 (16:42 UTC)

توقعات

تاريخ ووقت الإصدار 2ساعات و 45 دقيقة قبل الساعة 13:57UTC
التوقعات صالحة من24 الساعة 14 UTC إلى 25 الساعة 06 UTC
ريح 18 عقدة من الشرق/الجنوب الشرقي
الرؤية: 10 كم
سماء صافية
أصبح
من 24 الساعة 17 UTC إلى 24 الساعة 18 UTC
ريح 15 عقدة من الشمال/الشمال الشرقي
من 25 الساعة 0300 UTC
ريح 15 عقدة من الشرق/الجنوب الشرقي
الرؤية: 10 كم
سماء صافية

TAF: MMCE 241357Z 2414/2506 12018KT P6SM SKC BECMG 2417/2418 03015KT FM250300 12015KT P6SM SKC

أرصاد الطقس والتوقعات من أكثر من 4000 مطار (تقارير الطقس للمطار METAR والتنبؤ بالطقس بالمطارTAF).

المحطات المتاحة هي النقط الصفراء والحمراء على الخريطة.

حرك المؤشر فوق النقطة لمعرفة اسم المحطة.

ثم انقر لمعرفة أرصاد وتوقعات الطقس.

لتغيير الخارطة: اضغط على الأزرار الخضراء مع رمز الصليب الأسود للتكبير. على الزر الأخضر مع شرطة للتصغير، أو على الأسهم الخضراء للخرائط المجاورة.


METAR-TAF: